Time;durP1;ratioP1;P1;durP2;ratioP2;P2;SDS_P1;SDS_P2;PMS_P1;PMS_P2;Temp;Humidity;BMP_temperature;BMP_pressure;BME280_temperature;BME280_humidity;BME280_pressure;Samples;Min_cycle;Max_cycle;Signal;HPM_P1;HPM_P2
2022/08/06 00:01:48;;;;;;;6.55;2.38;;;13.70;99.90;;;;;;5073324;28;20048;-77
2022/08/06 00:04:14;;;;;;;4.00;1.97;;;14.00;99.90;;;;;;5073573;28;20041;-77
2022/08/06 00:06:40;;;;;;;4.07;2.28;;;13.70;99.90;;;;;;5073347;28;20044;-78
2022/08/06 00:09:06;;;;;;;5.55;2.15;;;13.70;99.90;;;;;;5073487;28;20052;-77
2022/08/06 00:11:31;;;;;;;4.45;2.00;;;13.60;99.90;;;;;;5073477;28;20055;-77
2022/08/06 00:13:57;;;;;;;6.50;2.17;;;13.60;99.90;;;;;;5073386;28;20044;-77
2022/08/06 00:16:23;;;;;;;3.43;2.00;;;13.90;99.90;;;;;;5073304;28;20137;-77
2022/08/06 00:18:48;;;;;;;5.35;2.40;;;13.50;99.90;;;;;;5073400;28;20044;-77
2022/08/06 00:21:14;;;;;;;4.43;2.53;;;13.50;99.90;;;;;;5073419;28;20048;-77
2022/08/06 00:23:39;;;;;;;6.43;2.70;;;13.50;99.90;;;;;;5073406;28;20436;-76
2022/08/06 00:26:05;;;;;;;3.78;2.42;;;13.50;99.90;;;;;;5073330;28;20454;-77
2022/08/06 00:28:31;;;;;;;4.87;2.23;;;13.40;99.90;;;;;;5073348;28;20135;-77
2022/08/06 00:30:56;;;;;;;4.72;2.00;;;13.40;99.90;;;;;;5072998;28;20083;-77
2022/08/06 00:33:22;;;;;;;4.80;2.00;;;13.40;99.90;;;;;;5073293;28;20481;-77
2022/08/06 00:35:47;;;;;;;4.75;2.10;;;13.40;99.90;;;;;;5073569;28;20052;-77
2022/08/06 00:38:13;;;;;;;3.87;2.17;;;13.30;99.90;;;;;;5072906;28;20059;-77
2022/08/06 00:40:39;;;;;;;5.20;1.88;;;13.30;99.90;;;;;;5076904;28;20051;-77
2022/08/06 00:43:04;;;;;;;3.17;2.00;;;13.20;99.90;;;;;;5076950;28;20481;-77
2022/08/06 00:45:32;;;;;;;4.18;1.90;;;13.20;99.90;;;;;;5076886;28;20048;-77
2022/08/06 00:47:59;;;;;;;4.72;1.98;;;13.20;99.90;;;;;;5076182;28;20485;-78
2022/08/06 00:50:25;;;;;;;4.25;2.20;;;13.10;99.90;;;;;;5075636;28;20408;-76
2022/08/06 00:52:50;;;;;;;3.40;2.03;;;13.10;99.90;;;;;;5075629;28;20166;-76
2022/08/06 00:55:16;;;;;;;5.20;2.13;;;13.00;99.90;;;;;;5075746;28;20073;-75
2022/08/06 00:57:41;;;;;;;5.38;2.58;;;13.00;99.90;;;;;;5075512;28;20052;-76
2022/08/06 01:00:08;;;;;;;4.05;2.35;;;13.00;99.90;;;;;;5075470;28;20106;-75
2022/08/06 01:02:34;;;;;;;4.18;1.88;;;13.00;99.90;;;;;;5075176;28;20483;-77
2022/08/06 01:04:59;;;;;;;5.67;2.10;;;12.90;99.90;;;;;;5075430;28;20044;-76
2022/08/06 01:07:25;;;;;;;3.15;2.03;;;12.90;99.90;;;;;;5075251;28;20051;-76
2022/08/06 01:09:51;;;;;;;3.10;1.98;;;12.80;99.90;;;;;;5075092;28;20126;-77
2022/08/06 01:12:17;;;;;;;7.95;2.15;;;12.80;99.90;;;;;;5075146;28;20044;-76
2022/08/06 01:14:43;;;;;;;3.20;1.90;;;12.70;99.90;;;;;;5075217;28;20090;-77
2022/08/06 01:17:18;;;;;;;2.47;1.73;;;12.80;99.90;;;;;;5075187;28;20045;-77
2022/08/06 01:20:07;;;;;;;5.45;2.45;;;12.70;99.90;;;;;;5075112;28;20044;-77
2022/08/06 01:23:10;;;;;;;3.40;1.88;;;12.70;99.90;;;;;;5075284;28;20044;-77
2022/08/06 01:26:07;;;;;;;4.63;1.92;;;12.70;99.90;;;;;;5075023;28;20052;-76
2022/08/06 01:28:45;;;;;;;3.42;1.98;;;12.60;99.90;;;;;;5075068;28;20040;-76
2022/08/06 01:31:19;;;;;;;3.45;2.17;;;12.70;99.90;;;;;;5073858;28;20056;-76
2022/08/06 01:33:52;;;;;;;3.08;1.70;;;12.50;99.90;;;;;;5074991;28;20128;-76
2022/08/06 01:36:23;;;;;;;4.63;2.08;;;12.50;99.90;;;;;;5074898;28;20532;-76
2022/08/06 01:38:52;;;;;;;2.83;1.95;;;12.50;99.90;;;;;;5074650;28;20041;-76
2022/08/06 01:41:38;;;;;;;3.97;1.80;;;12.40;99.90;;;;;;5074887;28;20393;-76
2022/08/06 01:44:10;;;;;;;4.82;2.00;;;12.40;99.90;;;;;;5074811;28;20044;-77
2022/08/06 01:46:43;;;;;;;2.80;1.85;;;12.30;99.90;;;;;;5075113;28;20040;-76
2022/08/06 01:49:11;;;;;;;3.47;2.03;;;12.40;99.90;;;;;;5039158;28;1043377;-76
2022/08/06 01:51:39;;;;;;;3.40;1.90;;;12.30;99.90;;;;;;5075636;28;20062;-76
2022/08/06 01:54:09;;;;;;;4.65;1.98;;;12.30;99.90;;;;;;5074565;28;20040;-77
2022/08/06 01:56:38;;;;;;;3.00;2.10;;;12.30;99.90;;;;;;5075260;28;20062;-77
2022/08/06 01:59:06;;;;;;;4.88;2.50;;;12.20;99.90;;;;;;5075607;28;20135;-76
2022/08/06 02:01:34;;;;;;;3.95;2.47;;;12.10;99.90;;;;;;5075563;28;20044;-76
2022/08/06 02:04:01;;;;;;;4.90;2.67;;;12.10;99.90;;;;;;5075739;28;20040;-77
2022/08/06 02:06:34;;;;;;;4.00;2.00;;;12.10;99.90;;;;;;5075378;28;20457;-76
2022/08/06 02:09:07;;;;;;;3.42;2.15;;;12.00;99.90;;;;;;5075454;28;20374;-76
2022/08/06 02:11:36;;;;;;;2.97;2.10;;;12.00;99.90;;;;;;5076007;28;20396;-76
2022/08/06 02:14:04;;;;;;;3.92;2.00;;;12.00;99.90;;;;;;5075300;28;20040;-76
2022/08/06 02:16:34;;;;;;;5.65;3.30;;;11.90;99.90;;;;;;5075178;28;20053;-77
2022/08/06 02:19:03;;;;;;;4.57;2.35;;;11.90;99.90;;;;;;5075414;28;20067;-76
2022/08/06 02:21:31;;;;;;;2.97;2.40;;;11.90;99.90;;;;;;5074964;28;20102;-76
2022/08/06 02:23:59;;;;;;;4.75;2.10;;;11.80;99.90;;;;;;5075081;28;20047;-76
2022/08/06 02:26:27;;;;;;;2.88;1.83;;;11.80;99.90;;;;;;5075090;28;20044;-76
2022/08/06 02:28:55;;;;;;;6.80;2.58;;;11.80;99.90;;;;;;5074943;28;20094;-77
2022/08/06 02:31:21;;;;;;;5.90;2.25;;;11.80;99.90;;;;;;5074906;28;20098;-78
2022/08/06 02:33:47;;;;;;;3.15;2.15;;;11.80;99.90;;;;;;5074874;28;20052;-76
2022/08/06 02:36:24;;;;;;;2.90;1.90;;;11.70;99.90;;;;;;5074536;28;20066;-77
2022/08/06 02:39:14;;;;;;;5.65;2.28;;;11.70;99.90;;;;;;5075083;28;20451;-77
2022/08/06 02:41:45;;;;;;;7.82;2.58;;;11.70;99.90;;;;;;5075019;28;20076;-76
2022/08/06 02:44:42;;;;;;;5.72;2.40;;;11.70;99.90;;;;;;5074514;28;20048;-76
2022/08/06 02:47:19;;;;;;;3.00;2.22;;;11.60;99.90;;;;;;5066645;28;20106;-77
2022/08/06 02:49:49;;;;;;;4.15;2.05;;;11.60;99.90;;;;;;5074669;28;20131;-77
2022/08/06 02:52:19;;;;;;;2.95;1.98;;;11.60;99.90;;;;;;5074558;28;20040;-77
2022/08/06 02:55:00;;;;;;;4.13;2.15;;;11.60;99.90;;;;;;5074708;28;20052;-77
2022/08/06 02:57:37;;;;;;;2.88;2.17;;;11.50;99.90;;;;;;5074439;28;20041;-77
2022/08/06 03:00:08;;;;;;;3.50;2.00;;;11.40;99.90;;;;;;5074590;28;20481;-77
2022/08/06 03:02:37;;;;;;;8.23;2.00;;;11.40;99.90;;;;;;5074189;28;20052;-77
2022/08/06 03:05:06;;;;;;;5.57;2.22;;;11.40;99.90;;;;;;5074277;28;20048;-77
2022/08/06 03:07:33;;;;;;;2.40;1.85;;;11.40;99.90;;;;;;5074193;28;20441;-77
2022/08/06 03:10:00;;;;;;;3.35;2.08;;;11.40;99.90;;;;;;5074245;28;20131;-77
2022/08/06 03:12:27;;;;;;;5.60;1.70;;;11.30;99.90;;;;;;5074622;28;20055;-77
2022/08/06 03:14:54;;;;;;;2.53;1.60;;;11.30;99.90;;;;;;5074206;28;20365;-76
2022/08/06 03:17:20;;;;;;;;;;;11.30;99.90;;;;;;5074719;28;20041;-76
2022/08/06 03:19:47;;;;;;;3.95;2.08;;;11.50;99.90;;;;;;5073905;28;19920;-77
2022/08/06 03:22:15;;;;;;;2.65;1.65;;;11.20;99.90;;;;;;5073918;28;20526;-76
2022/08/06 03:24:42;;;;;;;4.55;2.00;;;11.20;99.90;;;;;;5074011;28;20044;-77
2022/08/06 03:27:09;;;;;;;;;;;11.20;99.90;;;;;;5074586;28;20083;-77
2022/08/06 03:29:36;;;;;;;4.80;1.80;;;11.20;99.90;;;;;;5073900;28;19920;-77
2022/08/06 03:32:03;;;;;;;3.38;1.95;;;11.00;99.90;;;;;;5073918;28;20041;-77
2022/08/06 03:34:30;;;;;;;4.55;1.65;;;11.00;99.90;;;;;;5073872;28;20047;-77
2022/08/06 03:36:57;;;;;;;3.95;2.22;;;11.00;99.90;;;;;;5073536;28;20044;-77
2022/08/06 03:39:25;;;;;;;3.40;1.90;;;11.00;99.90;;;;;;5074267;28;20099;-77
2022/08/06 03:41:52;;;;;;;2.88;1.92;;;11.00;99.90;;;;;;5072964;28;20044;-75
2022/08/06 03:44:18;;;;;;;3.35;1.95;;;11.00;99.90;;;;;;5074067;28;20052;-76
2022/08/06 03:46:51;;;;;;;2.90;2.00;;;11.00;99.90;;;;;;5073763;28;20058;-76
2022/08/06 03:49:25;;;;;;;5.15;2.38;;;11.00;99.90;;;;;;5074258;28;20397;-77
2022/08/06 03:51:54;;;;;;;3.22;1.75;;;11.00;99.90;;;;;;5073648;28;20135;-77
2022/08/06 03:54:28;;;;;;;4.07;2.20;;;11.00;99.90;;;;;;5073633;28;20098;-77
2022/08/06 03:57:08;;;;;;;4.00;1.80;;;11.00;99.90;;;;;;5073604;28;20090;-77
2022/08/06 03:59:36;;;;;;;3.53;1.95;;;11.00;99.90;;;;;;5073643;28;20041;-77
2022/08/06 04:02:03;;;;;;;3.13;2.20;;;11.00;99.90;;;;;;5073534;28;20044;-77
2022/08/06 04:04:30;;;;;;;;;;;11.00;99.90;;;;;;5073977;28;20101;-77
2022/08/06 04:06:57;;;;;;;2.70;1.80;;;10.90;99.90;;;;;;5073526;28;19926;-77
2022/08/06 04:09:24;;;;;;;4.22;2.17;;;11.10;99.90;;;;;;5073552;28;20052;-77
2022/08/06 04:11:50;;;;;;;3.15;2.00;;;10.90;99.90;;;;;;5073518;28;20083;-77
2022/08/06 04:14:16;;;;;;;2.63;2.13;;;10.90;99.90;;;;;;5074910;28;20055;-77
2022/08/06 04:16:42;;;;;;;4.83;2.53;;;10.90;99.90;;;;;;5077175;28;20062;-77
2022/08/06 04:19:10;;;;;;;5.00;2.35;;;10.90;99.90;;;;;;5077605;28;20403;-77
2022/08/06 04:21:37;;;;;;;2.40;1.90;;;10.90;99.90;;;;;;5077843;28;20401;-76
2022/08/06 04:24:02;;;;;;;4.95;1.85;;;10.90;99.90;;;;;;5077648;28;20135;-77
2022/08/06 04:26:28;;;;;;;3.70;2.42;;;10.90;99.90;;;;;;5077374;28;20127;-77
2022/08/06 04:28:56;;;;;;;3.13;2.30;;;10.90;99.90;;;;;;5077355;28;20552;-77
2022/08/06 04:31:23;;;;;;;2.95;2.05;;;10.90;99.90;;;;;;5077180;28;20074;-77
2022/08/06 04:33:51;;;;;;;2.80;2.10;;;10.90;99.90;;;;;;5077265;28;20044;-77
2022/08/06 04:36:17;;;;;;;4.90;2.40;;;10.90;99.90;;;;;;5077099;28;20044;-77
2022/08/06 04:38:44;;;;;;;3.77;2.20;;;10.90;99.90;;;;;;5077077;28;20055;-76
2022/08/06 04:41:10;;;;;;;;;;;10.90;99.90;;;;;;5077564;28;20275;-77
2022/08/06 04:43:36;;;;;;;4.13;2.30;;;10.90;99.90;;;;;;5077051;28;19927;-77
2022/08/06 04:46:02;;;;;;;4.25;2.30;;;10.90;99.90;;;;;;5076926;28;20040;-77
2022/08/06 04:48:28;;;;;;;4.03;2.53;;;10.90;99.90;;;;;;5076881;28;20087;-76
2022/08/06 04:50:54;;;;;;;4.78;2.45;;;10.90;99.90;;;;;;5076872;28;20052;-77
2022/08/06 04:53:20;;;;;;;3.97;2.65;;;10.90;99.90;;;;;;5076773;28;20534;-75
2022/08/06 04:55:47;;;;;;;3.30;2.58;;;10.90;99.90;;;;;;5075610;28;20040;-75
2022/08/06 04:58:15;;;;;;;4.13;2.78;;;11.10;99.90;;;;;;5076700;28;20040;-76
2022/08/06 05:00:42;;;;;;;4.38;2.75;;;10.90;99.90;;;;;;5076433;28;20252;-76
2022/08/06 05:03:08;;;;;;;4.43;2.92;;;10.80;99.90;;;;;;5077080;28;20076;-75
2022/08/06 05:05:50;;;;;;;4.90;2.60;;;10.90;99.90;;;;;;5076656;28;20107;-75
2022/08/06 05:08:18;;;;;;;4.28;2.55;;;10.90;99.90;;;;;;5076632;28;20052;-76
2022/08/06 05:10:53;;;;;;;4.40;2.50;;;10.90;99.90;;;;;;5076477;28;20055;-76
2022/08/06 05:13:22;;;;;;;6.13;2.83;;;10.90;99.90;;;;;;5076597;28;20402;-76
2022/08/06 05:15:53;;;;;;;5.93;3.17;;;10.90;99.90;;;;;;5076375;28;20049;-76
2022/08/06 05:18:25;;;;;;;4.75;2.70;;;11.00;99.90;;;;;;5076810;28;20044;-77
2022/08/06 05:20:54;;;;;;;5.53;3.38;;;11.20;99.90;;;;;;5076164;28;20040;-76
2022/08/06 05:23:47;;;;;;;6.47;3.53;;;11.00;99.90;;;;;;5076329;28;20508;-77
2022/08/06 05:26:13;;;;;;;5.45;3.00;;;11.10;99.90;;;;;;5074721;28;20048;-76
2022/08/06 05:28:40;;;;;;;6.22;2.60;;;11.10;99.90;;;;;;5076177;28;20040;-76
2022/08/06 05:31:05;;;;;;;4.75;3.00;;;11.40;99.90;;;;;;5076153;28;20123;-77
2022/08/06 05:33:36;;;;;;;5.03;3.47;;;11.20;99.90;;;;;;5076150;28;20500;-77
2022/08/06 05:36:03;;;;;;;4.07;3.30;;;11.30;99.90;;;;;;5075931;28;20119;-76
2022/08/06 05:38:31;;;;;;;4.57;3.03;;;11.30;99.90;;;;;;5076082;28;20133;-77
2022/08/06 05:40:56;;;;;;;4.90;3.30;;;11.40;99.90;;;;;;5076059;28;20045;-76
2022/08/06 05:43:23;;;;;;;4.95;2.75;;;11.40;99.90;;;;;;5075981;28;20503;-77
2022/08/06 05:45:52;;;;;;;5.05;3.13;;;11.40;99.90;;;;;;5075901;28;20048;-77
2022/08/06 05:48:20;;;;;;;6.55;3.55;;;11.70;99.90;;;;;;5075764;28;20055;-78
2022/08/06 05:50:53;;;;;;;4.85;2.70;;;11.50;99.90;;;;;;5075717;28;20095;-77
2022/08/06 05:53:28;;;;;;;4.40;3.10;;;11.60;99.90;;;;;;5074810;28;20094;-77
2022/08/06 05:56:15;;;;;;;5.32;2.58;;;11.60;99.90;;;;;;5075962;28;20052;-77
2022/08/06 05:58:51;;;;;;;5.18;2.92;;;11.70;99.90;;;;;;5075808;28;20059;-78
2022/08/06 06:01:17;;;;;;;6.50;2.95;;;11.80;99.90;;;;;;5075522;28;20040;-77
2022/08/06 06:03:44;;;;;;;3.67;2.77;;;11.90;99.90;;;;;;5075555;28;20049;-75
2022/08/06 06:06:11;;;;;;;6.00;3.30;;;12.00;99.90;;;;;;5075605;28;20395;-76
2022/08/06 06:08:37;;;;;;;3.78;2.80;;;12.20;99.90;;;;;;5075714;28;20041;-76
2022/08/06 06:11:04;;;;;;;3.47;2.70;;;12.30;99.90;;;;;;5075412;28;20165;-77
2022/08/06 06:13:30;;;;;;;;;;;12.40;99.90;;;;;;5075693;28;20287;-78
2022/08/06 06:16:19;;;;;;;4.10;2.70;;;12.70;99.90;;;;;;5075000;28;20441;-76
2022/08/06 06:19:12;;;;;;;5.10;2.55;;;12.80;99.90;;;;;;5071802;28;20056;-77
2022/08/06 06:22:02;;;;;;;3.55;2.63;;;13.00;99.90;;;;;;5075283;28;20040;-78
2022/08/06 06:24:48;;;;;;;3.35;2.53;;;13.30;99.90;;;;;;5075326;28;20045;-77
2022/08/06 06:27:23;;;;;;;6.68;2.92;;;13.50;99.90;;;;;;5075068;28;20393;-78
2022/08/06 06:30:06;;;;;;;4.47;2.42;;;13.70;99.90;;;;;;5075204;28;20123;-77
2022/08/06 06:32:41;;;;;;;3.80;2.35;;;13.90;99.90;;;;;;5074725;28;20141;-77
2022/08/06 06:35:25;;;;;;;4.55;2.33;;;14.10;99.90;;;;;;5074937;28;20048;-77
2022/08/06 06:37:54;;;;;;;4.28;2.53;;;14.30;99.90;;;;;;5073994;28;20044;-77
2022/08/06 06:40:48;;;;;;;3.70;2.33;;;14.50;99.90;;;;;;5074759;28;20044;-76
2022/08/06 06:43:31;;;;;;;3.95;2.47;;;14.70;99.90;;;;;;5074710;28;20090;-76
2022/08/06 06:46:10;;;;;;;4.70;2.58;;;14.90;99.90;;;;;;5074725;28;20123;-74
2022/08/06 06:48:49;;;;;;;4.05;3.13;;;15.20;99.90;;;;;;5074925;28;20423;-75
2022/08/06 06:51:44;;;;;;;5.55;3.60;;;15.30;99.90;;;;;;5074253;28;20527;-77
2022/08/06 06:54:18;;;;;;;4.75;3.17;;;15.30;99.90;;;;;;5074018;28;20056;-77
2022/08/06 06:56:48;;;;;;;4.40;3.38;;;15.40;99.90;;;;;;5074652;28;20153;-77
2022/08/06 06:59:21;;;;;;;6.22;3.03;;;15.60;99.90;;;;;;5074466;28;20044;-77
2022/08/06 07:01:48;;;;;;;3.55;2.47;;;15.80;99.90;;;;;;5074179;28;20141;-77
2022/08/06 07:04:16;;;;;;;7.35;2.65;;;15.90;99.90;;;;;;5074284;28;20060;-77
2022/08/06 07:06:46;;;;;;;3.88;2.55;;;16.00;99.90;;;;;;5073665;28;20174;-77
2022/08/06 07:09:18;;;;;;;2.78;1.73;;;16.10;99.90;;;;;;5074461;28;20040;-76
2022/08/06 07:11:45;;;;;;;4.00;1.90;;;16.30;99.90;;;;;;5074178;28;20052;-77
2022/08/06 07:14:11;;;;;;;2.53;1.75;;;16.50;99.90;;;;;;5074174;28;20044;-77
2022/08/06 07:16:38;;;;;;;5.32;1.92;;;16.50;99.90;;;;;;5074043;28;20110;-76
2022/08/06 07:19:05;;;;;;;;;;;16.70;99.90;;;;;;5074566;28;20048;-77
2022/08/06 07:21:32;;;;;;;3.05;1.52;;;16.80;99.90;;;;;;5074072;28;19930;-77
2022/08/06 07:23:58;;;;;;;2.20;1.10;;;16.90;99.90;;;;;;5074143;28;20056;-77
2022/08/06 07:26:25;;;;;;;4.03;1.10;;;17.10;99.90;;;;;;5074009;28;20042;-77
2022/08/06 07:28:53;;;;;;;1.80;0.95;;;17.30;99.90;;;;;;5073852;28;20040;-77
2022/08/06 07:31:24;;;;;;;2.13;1.10;;;17.30;99.90;;;;;;5073957;28;20047;-77
2022/08/06 07:33:51;;;;;;;2.97;0.93;;;17.40;99.90;;;;;;5074370;28;20041;-77
2022/08/06 07:36:17;;;;;;;;;;;17.60;99.90;;;;;;5074222;28;20427;-77
2022/08/06 07:38:45;;;;;;;2.72;1.00;;;17.60;99.90;;;;;;5073894;28;20257;-77
2022/08/06 07:41:12;;;;;;;3.10;1.10;;;17.80;99.90;;;;;;5073852;28;20040;-77
2022/08/06 07:43:51;;;;;;;;;;;17.90;99.90;;;;;;5074148;28;20044;-76
2022/08/06 07:46:22;;;;;;;3.63;1.00;;;18.00;99.90;;;;;;5073749;28;19927;-77
2022/08/06 07:48:54;;;;;;;2.05;1.00;;;18.10;99.90;;;;;;5073656;28;20067;-77
2022/08/06 07:51:23;;;;;;;3.38;0.82;;;18.30;99.90;;;;;;5074007;28;20063;-78
2022/08/06 07:53:50;;;;;;;3.05;1.00;;;18.20;99.90;;;;;;5073379;28;20563;-77
2022/08/06 07:56:17;;;;;;;1.35;0.70;;;18.20;99.90;;;;;;5073551;28;20044;-77
2022/08/06 07:58:44;;;;;;;2.58;0.80;;;18.40;99.90;;;;;;5073502;28;20492;-77
2022/08/06 08:01:11;;;;;;;2.30;0.70;;;18.60;99.90;;;;;;5073954;28;20041;-77
2022/08/06 08:06:22;;;;;;;1.80;0.80;;;18.70;99.90;;;;;;5073704;28;20052;-78
2022/08/06 08:09:22;;;;;;;2.55;0.60;;;18.60;99.90;;;;;;5073529;28;20041;-78
2022/08/06 08:11:48;;;;;;;2.42;0.80;;;18.80;99.90;;;;;;5061270;28;20057;-78
2022/08/06 08:14:17;;;;;;;;;;;18.80;99.90;;;;;;5073796;28;20049;-79
2022/08/06 08:16:43;;;;;;;4.05;0.93;;;18.90;99.90;;;;;;5073304;28;19971;-78
2022/08/06 08:19:20;;;;;;;1.83;0.73;;;19.00;99.90;;;;;;5071613;28;20557;-77
2022/08/06 08:21:46;;;;;;;2.75;0.70;;;19.10;99.90;;;;;;5073677;28;20485;-77
2022/08/06 08:24:11;;;;;;;4.00;0.73;;;19.10;99.90;;;;;;5073469;28;20052;-80
2022/08/06 08:26:37;;;;;;;1.70;0.70;;;19.00;99.90;;;;;;5073802;28;20076;-79
2022/08/06 08:29:02;;;;;;;3.00;0.80;;;19.00;99.90;;;;;;5073302;28;20049;-79
2022/08/06 08:31:28;;;;;;;1.80;0.70;;;19.00;99.90;;;;;;5073262;28;20049;-79
2022/08/06 08:33:53;;;;;;;2.40;0.70;;;19.10;99.90;;;;;;5073177;28;20087;-79
2022/08/06 08:36:20;;;;;;;2.53;0.87;;;19.40;99.90;;;;;;5072835;28;20503;-79
2022/08/06 08:41:48;;;;;;;2.90;0.77;;;19.50;99.90;;;;;;5132143;27;20443;-81
2022/08/06 08:44:20;;;;;;;2.35;0.65;;;19.60;99.90;;;;;;5131661;27;20108;-83
2022/08/06 08:46:47;;;;;;;8.38;1.08;;;19.50;99.90;;;;;;5114182;28;20079;-83
2022/08/06 08:49:41;;;;;;;2.85;0.80;;;19.60;99.90;;;;;;5131724;27;20048;-83
2022/08/06 08:52:13;;;;;;;3.58;0.82;;;19.70;99.90;;;;;;5131704;27;20047;-82
2022/08/06 08:54:45;;;;;;;2.55;0.75;;;19.90;99.90;;;;;;5131300;27;20046;-80
2022/08/06 08:57:10;;;;;;;3.22;0.82;;;19.90;99.90;;;;;;5131645;27;20043;-80
2022/08/06 08:59:36;;;;;;;2.60;0.80;;;19.90;99.90;;;;;;5131593;27;20036;-82
2022/08/06 09:02:04;;;;;;;1.10;0.70;;;19.90;99.90;;;;;;5131562;27;20039;-83
2022/08/06 09:04:32;;;;;;;2.33;0.65;;;20.00;99.90;;;;;;5131478;27;20096;-80
2022/08/06 09:06:58;;;;;;;2.17;0.82;;;20.10;99.90;;;;;;5129897;28;20444;-81
2022/08/06 09:09:26;;;;;;;2.00;0.77;;;20.20;99.90;;;;;;5113085;28;20096;-80
2022/08/06 09:11:52;;;;;;;2.20;0.60;;;20.40;99.60;;;;;;5131710;27;20104;-80
2022/08/06 09:14:20;;;;;;;1.90;0.50;;;20.50;99.20;;;;;;5131501;28;20043;-78
2022/08/06 09:16:45;;;;;;;2.45;0.98;;;20.70;99.40;;;;;;5131043;27;20124;-78
2022/08/06 09:19:12;;;;;;;2.53;0.73;;;20.70;99.40;;;;;;5112876;28;20087;-79
2022/08/06 09:21:37;;;;;;;1.20;0.70;;;20.70;99.10;;;;;;5131112;27;20407;-79
2022/08/06 09:24:04;;;;;;;2.77;0.90;;;20.70;99.10;;;;;;5130979;28;20042;-78
2022/08/06 09:26:33;;;;;;;10.32;1.00;;;20.80;98.60;;;;;;5130909;27;20043;-79
2022/08/06 09:28:58;;;;;;;2.35;0.80;;;20.90;98.90;;;;;;5130589;28;20059;-78
2022/08/06 09:31:24;;;;;;;1.20;0.70;;;21.00;98.10;;;;;;5130015;28;20043;-79
2022/08/06 09:34:02;;;;;;;2.20;0.70;;;21.10;98.30;;;;;;5130932;28;20055;-79
2022/08/06 09:36:39;;;;;;;1.55;0.60;;;21.10;97.50;;;;;;5130890;27;20047;-79
2022/08/06 09:39:05;;;;;;;2.15;0.80;;;21.10;98.60;;;;;;5130791;27;20039;-79
2022/08/06 09:41:31;;;;;;;2.57;0.70;;;20.70;98.60;;;;;;5130786;28;20058;-79
2022/08/06 09:43:57;;;;;;;3.87;0.90;;;20.60;98.60;;;;;;5130850;28;20043;-79
2022/08/06 09:46:36;;;;;;;1.67;0.70;;;20.60;98.90;;;;;;5130725;27;20039;-79
2022/08/06 09:49:02;;;;;;;35.20;3.55;;;20.70;98.30;;;;;;5129552;28;20429;-77
2022/08/06 09:51:29;;;;;;;11.40;1.70;;;20.90;98.60;;;;;;5124510;28;20047;-78
2022/08/06 09:53:56;;;;;;;;;;;21.10;98.00;;;;;;5117684;27;20088;-78
2022/08/06 09:56:21;;;;;;;2.97;0.85;;;21.40;96.20;;;;;;5116852;28;19920;-80
2022/08/06 09:58:48;;;;;;;1.73;0.73;;;21.40;97.00;;;;;;5117123;28;20388;-80
2022/08/06 10:01:22;;;;;;;3.00;0.75;;;21.40;95.20;;;;;;5116598;28;20541;-81
2022/08/06 10:03:48;;;;;;;1.80;0.75;;;21.20;95.40;;;;;;5116466;28;20081;-79
2022/08/06 10:06:20;;;;;;;2.28;0.70;;;21.10;96.20;;;;;;5116989;28;20039;-79
2022/08/06 10:08:47;;;;;;;2.65;0.70;;;21.00;96.90;;;;;;5116648;28;20048;-79
2022/08/06 10:11:13;;;;;;;3.30;0.70;;;20.90;97.00;;;;;;5116503;28;20040;-82
2022/08/06 10:13:45;;;;;;;1.83;0.80;;;20.90;97.40;;;;;;5116400;27;20479;-79
2022/08/06 10:16:20;;;;;;;2.30;0.80;;;20.80;97.50;;;;;;5116288;28;20043;-78
2022/08/06 10:18:48;;;;;;;2.38;0.77;;;20.70;97.00;;;;;;5098099;28;20043;-76
2022/08/06 10:21:23;;;;;;;1.95;0.80;;;20.70;96.90;;;;;;5116560;28;20145;-77
2022/08/06 10:23:51;;;;;;;3.53;0.90;;;20.90;95.20;;;;;;5116499;28;20090;-78
2022/08/06 10:26:20;;;;;;;2.83;0.98;;;21.10;95.20;;;;;;5114962;28;20036;-75
2022/08/06 10:28:48;;;;;;;3.25;0.70;;;21.30;96.10;;;;;;5115790;28;20507;-80
2022/08/06 10:31:15;;;;;;;2.58;0.80;;;21.40;96.00;;;;;;5115973;28;20040;-81
2022/08/06 10:33:58;;;;;;;3.72;0.98;;;21.30;95.80;;;;;;5115975;28;20120;-79
2022/08/06 10:36:31;;;;;;;3.28;0.90;;;21.30;94.90;;;;;;5115009;28;20043;-82
2022/08/06 10:38:57;;;;;;;3.25;1.20;;;21.20;95.80;;;;;;5115032;28;20083;-80
2022/08/06 10:41:23;;;;;;;2.92;1.50;;;20.80;94.10;;;;;;5114420;28;20047;-81
2022/08/06 10:43:50;;;;;;;2.83;1.55;;;20.70;93.90;;;;;;5132629;27;20092;-83
2022/08/06 10:46:16;;;;;;;2.97;1.27;;;20.60;94.50;;;;;;5114972;28;20043;-81
2022/08/06 10:48:44;;;;;;;3.03;1.35;;;20.50;94.50;;;;;;5115800;28;20055;-83
2022/08/06 10:51:11;;;;;;;2.40;1.30;;;20.40;95.10;;;;;;5116062;28;20047;-84
2022/08/06 10:53:40;;;;;;;3.67;1.30;;;20.70;95.20;;;;;;5097707;28;20407;-84
2022/08/06 10:56:09;;;;;;;2.75;1.30;;;20.80;93.80;;;;;;5115007;28;20130;-81
2022/08/06 10:58:37;;;;;;;3.45;1.40;;;21.10;93.70;;;;;;5115909;28;20040;-81
2022/08/06 11:01:28;;;;;;;2.53;1.30;;;21.40;94.00;;;;;;5113929;28;20079;-81
2022/08/06 11:04:25;;;;;;;2.47;1.02;;;21.90;94.10;;;;;;5104950;28;20107;-81
2022/08/06 11:07:13;;;;;;;1.70;1.20;;;22.20;92.40;;;;;;5089822;27;20554;-81
2022/08/06 11:10:23;;;;;;;2.65;1.20;;;22.00;92.30;;;;;;5097657;28;20073;-82
2022/08/06 11:13:02;;;;;;;2.85;1.50;;;21.90;92.20;;;;;;5106989;28;20100;-82
2022/08/06 11:15:34;;;;;;;1.45;0.93;;;21.70;92.30;;;;;;5131998;27;20052;-81
2022/08/06 11:18:09;;;;;;;2.45;1.00;;;21.40;92.40;;;;;;5115030;28;20047;-81
2022/08/06 11:20:37;;;;;;;3.72;1.35;;;21.20;93.00;;;;;;5115215;28;20122;-81
2022/08/06 11:23:11;;;;;;;2.05;1.20;;;21.20;94.20;;;;;;5114899;28;20176;-82
2022/08/06 11:25:50;;;;;;;2.40;1.33;;;21.00;95.30;;;;;;5114283;28;20134;-81
2022/08/06 11:28:18;;;;;;;1.83;1.08;;;21.00;95.70;;;;;;5115313;28;20496;-80
2022/08/06 11:30:51;;;;;;;3.88;1.13;;;20.80;96.20;;;;;;5113940;28;20483;-82
2022/08/06 11:33:42;;;;;;;2.22;1.20;;;20.90;96.60;;;;;;5114893;28;20146;-79
2022/08/06 11:36:27;;;;;;;2.22;1.33;;;21.20;96.50;;;;;;5113874;28;20444;-80
2022/08/06 11:38:53;;;;;;;4.05;1.50;;;21.50;95.40;;;;;;5114810;28;20079;-80
2022/08/06 11:41:22;;;;;;;2.40;1.40;;;21.80;95.30;;;;;;5115111;28;20087;-79
2022/08/06 11:43:51;;;;;;;2.22;1.50;;;22.20;95.50;;;;;;5114752;28;20047;-81
2022/08/06 11:46:20;;;;;;;2.65;1.40;;;22.40;92.90;;;;;;5114665;28;20055;-79
2022/08/06 11:49:02;;;;;;;2.38;1.30;;;22.40;92.10;;;;;;5114532;28;20044;-80
2022/08/06 11:51:43;;;;;;;4.90;1.40;;;22.50;92.00;;;;;;5113303;28;20075;-81
2022/08/06 11:54:22;;;;;;;3.25;1.55;;;22.50;91.50;;;;;;5114494;28;20049;-81
2022/08/06 11:57:08;;;;;;;2.53;1.30;;;22.30;92.50;;;;;;5115245;28;20395;-80
2022/08/06 11:59:38;;;;;;;4.53;1.50;;;22.10;92.30;;;;;;5113489;28;20138;-80
2022/08/06 12:02:10;;;;;;;2.65;1.50;;;22.10;93.40;;;;;;5114339;28;20059;-81
2022/08/06 12:04:35;;;;;;;1.95;1.30;;;22.10;93.30;;;;;;5113312;28;20039;-81
2022/08/06 12:07:22;;;;;;;5.10;1.43;;;22.20;93.10;;;;;;5114299;28;20486;-80
2022/08/06 12:10:04;;;;;;;2.38;1.27;;;22.10;93.10;;;;;;5114232;28;20043;-80
2022/08/06 12:12:31;;;;;;;1.63;0.90;;;22.10;93.30;;;;;;5114465;28;20089;-81
2022/08/06 12:15:22;;;;;;;2.38;1.30;;;22.00;93.70;;;;;;5113912;28;20096;-82
2022/08/06 12:17:54;;;;;;;2.70;1.17;;;21.70;93.60;;;;;;5103130;27;20051;-81
2022/08/06 12:20:40;;;;;;;3.22;1.30;;;21.70;94.20;;;;;;5114477;28;20054;-82
2022/08/06 12:23:11;;;;;;;3.42;1.38;;;21.70;94.20;;;;;;5114301;28;20043;-82
2022/08/06 12:25:38;;;;;;;2.90;1.23;;;21.60;93.70;;;;;;5113174;28;20391;-82
2022/08/06 12:28:04;;;;;;;3.03;1.20;;;21.40;94.00;;;;;;5113917;28;20046;-81
2022/08/06 12:30:44;;;;;;;2.70;1.27;;;21.50;94.50;;;;;;5112994;28;20506;-81
2022/08/06 12:33:10;;;;;;;2.72;1.10;;;21.60;94.10;;;;;;5113899;28;20446;-82
2022/08/06 12:35:49;;;;;;;4.18;1.10;;;21.80;94.90;;;;;;5113936;28;20043;-82
2022/08/06 12:38:15;;;;;;;1.90;0.88;;;21.80;93.70;;;;;;5113864;28;20051;-81
2022/08/06 12:40:53;;;;;;;3.60;1.10;;;21.80;93.60;;;;;;5113561;28;20126;-82
2022/08/06 12:43:19;;;;;;;2.75;1.25;;;21.80;92.20;;;;;;5113673;28;20492;-82
2022/08/06 12:45:45;;;;;;;2.90;1.07;;;21.90;92.70;;;;;;5113802;28;20048;-82
2022/08/06 12:48:12;;;;;;;3.17;0.90;;;22.00;92.90;;;;;;5130141;28;20051;-81
2022/08/06 12:50:42;;;;;;;2.45;1.17;;;22.20;92.70;;;;;;5113829;28;20083;-82
2022/08/06 12:53:11;;;;;;;3.53;1.10;;;22.20;92.40;;;;;;5113766;28;20483;-82
2022/08/06 12:55:45;;;;;;;3.20;1.10;;;22.30;92.90;;;;;;5114201;28;20059;-81
2022/08/06 12:58:13;;;;;;;3.10;1.20;;;22.50;92.00;;;;;;5113706;28;20360;-82
2022/08/06 13:00:41;;;;;;;3.83;1.23;;;22.60;92.00;;;;;;5113712;28;20079;-81
2022/08/06 13:03:08;;;;;;;3.30;1.20;;;22.60;91.90;;;;;;5113610;28;20044;-82
2022/08/06 13:05:34;;;;;;;3.03;1.50;;;22.80;91.80;;;;;;5113620;28;20039;-82
2022/08/06 13:08:00;;;;;;;1.85;1.23;;;22.80;91.40;;;;;;5112417;28;20169;-82
2022/08/06 13:10:26;;;;;;;1.98;1.13;;;22.70;90.60;;;;;;5130317;28;20083;-82
2022/08/06 13:12:56;;;;;;;3.33;1.30;;;22.50;90.00;;;;;;5113495;28;20133;-83
2022/08/06 13:15:23;;;;;;;3.20;1.10;;;22.50;90.70;;;;;;5129930;28;20491;-81